createdAt,value
2018-12-19T00:01:52.255Z,133.47
2018-12-19T00:04:25.000Z,139.23
2018-12-19T00:06:57.426Z,135.53
2018-12-19T00:09:27.775Z,137.57
2018-12-19T00:11:58.150Z,132.33
2018-12-19T00:14:29.527Z,130.80
2018-12-19T00:16:59.853Z,128.83
2018-12-19T00:19:29.915Z,134.00
2018-12-19T00:22:00.055Z,189.70
2018-12-19T00:24:30.478Z,125.25
2018-12-19T00:27:03.336Z,137.20
2018-12-19T00:29:36.048Z,136.20
2018-12-19T00:32:08.479Z,127.90
2018-12-19T00:34:40.809Z,120.03
2018-12-19T00:37:11.056Z,128.38
2018-12-19T00:39:41.600Z,123.00
2018-12-19T00:42:12.036Z,127.60
2018-12-19T00:44:42.215Z,126.30
2018-12-19T00:47:12.744Z,125.92
2018-12-19T00:49:43.172Z,121.83
2018-12-19T00:52:13.557Z,123.40
2018-12-19T00:54:44.127Z,124.90
2018-12-19T00:57:14.689Z,121.80
2018-12-19T00:59:45.313Z,121.00
2018-12-19T01:02:15.686Z,120.90
2018-12-19T01:04:48.181Z,114.50
2018-12-19T01:07:22.886Z,115.00
2018-12-19T01:09:53.268Z,108.77
2018-12-19T01:12:24.512Z,119.33
2018-12-19T01:14:55.484Z,114.23
2018-12-19T01:17:25.751Z,107.33
2018-12-19T01:19:56.457Z,104.07
2018-12-19T01:22:26.682Z,101.07
2018-12-19T01:24:56.746Z,101.03
2018-12-19T01:27:27.226Z,101.07
2018-12-19T01:29:57.560Z,97.23
2018-12-19T01:32:28.532Z,97.30
2018-12-19T01:34:59.467Z,94.73
2018-12-19T01:37:30.295Z,105.47
2018-12-19T01:40:00.605Z,99.30
2018-12-19T01:42:30.791Z,102.17
2018-12-19T01:45:01.894Z,96.47
2018-12-19T01:47:32.310Z,94.57
2018-12-19T01:50:03.530Z,98.17
2018-12-19T01:52:33.846Z,99.73
2018-12-19T01:55:04.653Z,99.90
2018-12-19T01:57:34.877Z,92.87
2018-12-19T02:00:05.769Z,100.17
2018-12-19T02:02:36.882Z,102.30
2018-12-19T02:05:07.810Z,93.33
2018-12-19T02:07:38.146Z,102.43
2018-12-19T02:10:08.312Z,93.40
2018-12-19T02:12:39.057Z,93.80
2018-12-19T02:15:09.238Z,95.43
2018-12-19T02:17:40.687Z,94.10
2018-12-19T02:20:11.443Z,92.27
2018-12-19T02:22:41.783Z,96.40
2018-12-19T02:25:12.144Z,93.50
2018-12-19T02:27:43.014Z,100.10
2018-12-19T02:30:13.165Z,96.60
2018-12-19T02:32:44.077Z,93.27
2018-12-19T02:35:14.641Z,95.07
2018-12-19T02:37:45.025Z,96.73
2018-12-19T02:40:16.207Z,95.87
2018-12-19T02:42:46.454Z,97.70
2018-12-19T02:45:17.400Z,97.33
2018-12-19T02:47:47.707Z,98.97
2018-12-19T02:50:22.541Z,94.57
2018-12-19T02:52:52.765Z,94.67
2018-12-19T02:55:22.933Z,94.25
2018-12-19T02:57:59.556Z,93.63
2018-12-19T03:00:30.322Z,91.87
2018-12-19T03:03:00.941Z,90.70
2018-12-19T03:05:31.791Z,92.60
2018-12-19T03:08:03.729Z,92.00
2018-12-19T03:10:34.718Z,89.87
2018-12-19T03:13:06.005Z,92.15
2018-12-19T03:15:36.178Z,93.50
2018-12-19T03:18:06.530Z,89.73
2018-12-19T03:20:36.859Z,93.30
2018-12-19T03:23:07.240Z,90.97
2018-12-19T03:25:37.715Z,91.78
2018-12-19T03:28:07.962Z,91.57
2018-12-19T03:30:38.349Z,90.03
2018-12-19T03:33:09.009Z,91.77
2018-12-19T03:35:39.220Z,88.17
2018-12-19T03:38:11.522Z,88.37
2018-12-19T03:40:41.808Z,87.80
2018-12-19T03:43:12.208Z,86.32
2018-12-19T03:48:26.203Z,88.53
2018-12-19T03:50:57.659Z,86.03
2018-12-19T03:53:28.233Z,85.73
2018-12-19T03:55:58.742Z,87.00
2018-12-19T03:58:30.152Z,85.47
2018-12-19T04:01:00.209Z,85.47
2018-12-19T04:03:30.488Z,81.57
2018-12-19T04:06:00.596Z,83.37
2018-12-19T04:08:30.845Z,80.27
2018-12-19T04:11:01.828Z,80.70
2018-12-19T04:13:32.767Z,80.10
2018-12-19T04:16:03.352Z,78.73
2018-12-19T04:18:35.121Z,82.20
2018-12-19T04:21:05.511Z,78.23
2018-12-19T04:23:36.653Z,77.83
2018-12-19T04:28:44.458Z,78.27
2018-12-19T04:31:14.505Z,78.40
2018-12-19T04:33:44.967Z,78.37
2018-12-19T04:36:15.334Z,77.95
2018-12-19T04:41:23.345Z,77.53
2018-12-19T04:43:53.418Z,75.10
2018-12-19T04:46:24.372Z,76.82
2018-12-19T04:48:54.730Z,74.90
2018-12-19T04:51:26.734Z,77.87
2018-12-19T04:53:57.906Z,78.50
2018-12-19T04:56:28.604Z,79.83
2018-12-19T04:58:59.124Z,78.53
2018-12-19T05:01:29.885Z,75.77
2018-12-19T05:04:00.312Z,72.60
2018-12-19T05:06:30.727Z,68.97
2018-12-19T05:09:00.794Z,68.70
2018-12-19T05:11:31.133Z,66.10
2018-12-19T05:14:01.203Z,58.03
2018-12-19T05:16:31.532Z,57.03
2018-12-19T05:19:01.761Z,52.77
2018-12-19T05:21:32.231Z,50.20
2018-12-19T05:24:02.559Z,48.50
2018-12-19T05:26:33.203Z,48.93
2018-12-19T05:29:03.513Z,46.33
2018-12-19T05:31:34.274Z,46.43
2018-12-19T05:34:05.604Z,43.73
2018-12-19T05:36:36.858Z,42.30
2018-12-19T05:39:07.713Z,41.33
2018-12-19T05:41:38.035Z,39.47
2018-12-19T05:44:08.161Z,37.83
2018-12-19T05:46:38.877Z,39.53
2018-12-19T05:49:09.142Z,39.80
2018-12-19T05:51:39.868Z,39.55
2018-12-19T05:54:10.511Z,39.10
2018-12-19T05:56:40.509Z,37.33
2018-12-19T05:59:10.636Z,36.90
2018-12-19T06:01:41.330Z,33.60
2018-12-19T06:04:13.594Z,33.80
2018-12-19T06:06:43.959Z,33.90
2018-12-19T06:09:15.627Z,34.03
2018-12-19T06:11:46.143Z,33.53
2018-12-19T06:14:16.333Z,33.18
2018-12-19T06:16:46.629Z,33.58
2018-12-19T06:19:17.220Z,34.10
2018-12-19T06:21:48.651Z,30.80
2018-12-19T06:24:23.703Z,31.20
2018-12-19T06:26:53.951Z,31.17
2018-12-19T06:29:24.279Z,31.23
2018-12-19T06:31:55.006Z,31.70
2018-12-19T06:34:25.063Z,30.90
2018-12-19T06:36:55.235Z,30.70
2018-12-19T06:39:25.238Z,32.15
2018-12-19T06:41:55.511Z,31.33
2018-12-19T06:44:25.603Z,29.67
2018-12-19T06:46:56.244Z,31.47
2018-12-19T06:49:27.215Z,29.87
2018-12-19T06:51:57.192Z,30.17
2018-12-19T06:54:33.794Z,29.97
2018-12-19T06:57:03.776Z,28.57
2018-12-19T06:59:34.774Z,29.13
2018-12-19T07:02:05.492Z,30.63
2018-12-19T07:04:35.819Z,29.50
2018-12-19T07:07:12.213Z,28.77
2018-12-19T07:09:42.640Z,29.63
2018-12-19T07:12:13.350Z,29.13
2018-12-19T07:14:43.679Z,30.73
2018-12-19T07:17:13.746Z,29.65
2018-12-19T07:19:43.893Z,30.03
2018-12-19T07:22:13.960Z,28.67
2018-12-19T07:24:44.073Z,26.67
2018-12-19T07:27:14.523Z,28.87
2018-12-19T07:29:44.493Z,27.67
2018-12-19T07:32:14.642Z,28.73
2018-12-19T07:34:45.662Z,28.80
2018-12-19T07:37:15.768Z,27.63
2018-12-19T07:42:22.597Z,29.57
2018-12-19T07:44:52.781Z,28.60
2018-12-19T07:47:22.791Z,29.10
2018-12-19T07:49:52.739Z,29.00
2018-12-19T07:52:22.848Z,28.47
2018-12-19T07:54:52.934Z,29.60
2018-12-19T07:57:23.210Z,28.57
2018-12-19T07:59:53.345Z,28.40
2018-12-19T08:02:23.339Z,29.47
2018-12-19T08:04:53.598Z,28.77
2018-12-19T08:07:24.065Z,28.30
2018-12-19T08:09:54.309Z,27.37
2018-12-19T08:12:24.262Z,27.93
2018-12-19T08:14:58.376Z,29.73
2018-12-19T08:17:29.092Z,30.13
2018-12-19T08:19:59.609Z,29.93
2018-12-19T08:22:30.194Z,28.97
2018-12-19T08:25:00.624Z,28.27
2018-12-19T08:27:30.940Z,30.90
2018-12-19T08:30:00.972Z,29.30
2018-12-19T08:32:31.100Z,30.30
2018-12-19T08:35:01.050Z,30.70
2018-12-19T08:37:31.160Z,30.73
2018-12-19T08:40:01.921Z,29.50
2018-12-19T08:42:32.087Z,28.47
2018-12-19T08:47:44.977Z,28.93
2018-12-19T08:50:15.910Z,28.23
2018-12-19T08:52:46.025Z,28.70
2018-12-19T08:55:16.686Z,26.60
2018-12-19T08:57:46.977Z,27.87
2018-12-19T09:00:17.704Z,26.85
2018-12-19T09:02:48.191Z,26.20
2018-12-19T09:05:22.093Z,24.30
2018-12-19T09:07:53.161Z,26.10
2018-12-19T09:10:23.248Z,25.57
2018-12-19T09:12:53.265Z,24.70
2018-12-19T09:18:06.164Z,23.97
2018-12-19T09:20:36.484Z,25.50
2018-12-19T09:23:06.645Z,23.37
2018-12-19T09:25:37.605Z,24.70
2018-12-19T09:28:09.564Z,23.53
2018-12-19T09:30:40.476Z,24.05
2018-12-19T09:33:13.954Z,23.70
2018-12-19T09:35:44.107Z,23.23
2018-12-19T09:38:14.588Z,24.55
2018-12-19T09:40:45.856Z,23.87
2018-12-19T09:43:16.138Z,23.57
2018-12-19T09:45:46.844Z,23.67
2018-12-19T09:50:54.448Z,23.60
2018-12-19T09:56:10.175Z,24.27
2018-12-19T09:58:41.017Z,22.73
2018-12-19T10:01:11.697Z,22.73
2018-12-19T10:03:41.746Z,23.03
2018-12-19T10:06:12.180Z,23.45
2018-12-19T10:11:19.190Z,24.23
2018-12-19T10:13:50.145Z,24.15
2018-12-19T10:16:20.258Z,23.98
2018-12-19T10:18:50.495Z,23.50
2018-12-19T10:27:49.639Z,23.77
2018-12-19T10:30:20.359Z,24.43
2018-12-19T10:32:56.959Z,23.20
2018-12-19T10:38:03.711Z,24.90
2018-12-19T10:43:10.640Z,23.40
2018-12-19T10:45:40.634Z,23.97
2018-12-19T10:48:11.147Z,26.57
2018-12-19T10:50:41.493Z,25.13
2018-12-19T10:53:11.743Z,23.27
2018-12-19T10:55:42.888Z,25.27
2018-12-19T10:58:13.686Z,25.10
2018-12-19T11:03:30.231Z,24.90
2018-12-19T11:06:00.407Z,25.50
2018-12-19T11:08:31.201Z,24.13
2018-12-19T11:11:01.287Z,24.30
2018-12-19T11:13:31.403Z,24.93
2018-12-19T11:16:02.461Z,24.10
2018-12-19T11:18:32.656Z,24.47
2018-12-19T11:23:39.718Z,25.37
2018-12-19T11:26:13.894Z,24.32
2018-12-19T11:28:44.350Z,23.10
2018-12-19T11:31:14.501Z,23.45
2018-12-19T11:33:45.077Z,23.67
2018-12-19T11:36:15.401Z,25.35
2018-12-19T11:38:47.173Z,23.67
2018-12-19T11:41:17.308Z,23.67
2018-12-19T11:46:24.510Z,24.57
2018-12-19T11:48:54.535Z,24.43
2018-12-19T11:51:24.487Z,23.83
2018-12-19T11:53:54.886Z,24.77
2018-12-19T11:56:24.907Z,24.47
2018-12-19T11:58:55.288Z,23.97
2018-12-19T12:01:25.430Z,24.83
2018-12-19T12:03:55.708Z,25.00
2018-12-19T12:06:27.942Z,23.90
2018-12-19T12:08:57.998Z,22.73
2018-12-19T12:11:28.376Z,23.27
2018-12-19T12:13:58.812Z,22.40
2018-12-19T12:16:29.233Z,22.80
2018-12-19T12:18:59.533Z,22.70
2018-12-19T12:21:31.082Z,22.40
2018-12-19T12:24:01.672Z,22.97
2018-12-19T12:26:32.988Z,22.93
2018-12-19T12:29:04.362Z,21.70
2018-12-19T12:31:34.528Z,22.40
2018-12-19T12:34:06.696Z,22.80
2018-12-19T12:36:36.931Z,23.93
2018-12-19T12:39:08.815Z,23.00
2018-12-19T12:41:43.668Z,24.60
2018-12-19T12:44:13.693Z,23.32
2018-12-19T12:46:43.937Z,24.67
2018-12-19T12:49:14.981Z,24.33
2018-12-19T12:51:45.078Z,23.67
2018-12-19T12:54:15.885Z,23.18
2018-12-19T12:56:46.146Z,24.13
2018-12-19T12:59:16.267Z,23.22
2018-12-19T13:01:46.353Z,23.97
2018-12-19T13:04:16.584Z,23.62
2018-12-19T13:06:46.893Z,24.70
2018-12-19T13:09:17.098Z,22.60
2018-12-19T13:11:47.223Z,24.10
2018-12-19T13:14:17.626Z,25.20
2018-12-19T13:19:24.116Z,24.00
2018-12-19T13:21:54.201Z,24.60
2018-12-19T13:24:24.717Z,25.73
2018-12-19T13:26:56.616Z,26.13
2018-12-19T13:32:03.926Z,25.53
2018-12-19T13:34:33.912Z,25.10
2018-12-19T13:37:04.653Z,26.93
2018-12-19T13:39:34.730Z,26.10
2018-12-19T13:44:42.405Z,30.00
2018-12-19T13:47:15.452Z,29.53
2018-12-19T13:49:46.780Z,28.93
2018-12-19T13:52:17.300Z,30.10
2018-12-19T13:57:23.751Z,29.53
2018-12-19T13:59:53.731Z,30.60
2018-12-19T14:02:23.887Z,30.23
2018-12-19T14:04:54.108Z,29.93
2018-12-19T14:10:01.691Z,32.70
2018-12-19T14:12:31.992Z,34.60
2018-12-19T14:15:02.067Z,36.17
2018-12-19T14:17:32.881Z,34.97
2018-12-19T14:20:02.997Z,37.97
2018-12-19T14:22:33.334Z,37.30
2018-12-19T14:25:03.820Z,40.20
2018-12-19T14:27:34.038Z,39.33
2018-12-19T14:30:06.455Z,40.77
2018-12-19T14:32:39.626Z,43.47
2018-12-19T14:35:10.339Z,44.73
2018-12-19T14:37:40.749Z,44.10
2018-12-19T14:40:11.523Z,46.17
2018-12-19T14:42:41.839Z,47.90
2018-12-19T14:45:12.678Z,49.23
2018-12-19T14:50:25.632Z,53.77
2018-12-19T14:52:55.680Z,56.10
2018-12-19T14:55:27.447Z,52.70
2018-12-19T14:57:57.718Z,53.63
2018-12-19T15:00:27.945Z,54.30
2018-12-19T15:02:58.725Z,56.50
2018-12-19T15:05:29.173Z,53.07
2018-12-19T15:07:59.416Z,52.87
2018-12-19T15:10:29.636Z,53.30
2018-12-19T15:12:59.748Z,50.47
2018-12-19T15:15:30.379Z,49.53
2018-12-19T15:18:01.841Z,50.53
2018-12-19T15:20:33.237Z,49.23
2018-12-19T15:23:03.431Z,56.45
2018-12-19T15:25:33.997Z,60.77
2018-12-19T15:28:04.311Z,59.45
2018-12-19T15:30:35.298Z,61.17
2018-12-19T15:33:05.928Z,63.00
2018-12-19T15:35:37.363Z,59.70
2018-12-19T15:38:07.370Z,62.07
2018-12-19T15:40:39.567Z,60.87
2018-12-19T15:45:52.522Z,65.07
2018-12-19T15:48:22.808Z,73.10
2018-12-19T15:50:52.999Z,76.67
2018-12-19T15:53:24.339Z,66.07
2018-12-19T15:55:54.983Z,70.37
2018-12-19T15:58:26.009Z,64.37
2018-12-19T16:00:56.199Z,66.60
2018-12-19T16:03:26.201Z,67.57
2018-12-19T16:08:32.870Z,62.27
2018-12-19T16:11:03.375Z,63.27
2018-12-19T16:13:33.790Z,64.70
2018-12-19T16:16:04.947Z,62.07
2018-12-19T16:18:35.178Z,62.50
2018-12-19T16:21:06.645Z,61.97
2018-12-19T16:23:38.228Z,60.50
2018-12-19T16:26:09.790Z,60.40
2018-12-19T16:28:39.853Z,64.57
2018-12-19T16:31:10.161Z,64.10
2018-12-19T16:33:40.615Z,61.97
2018-12-19T16:36:12.718Z,61.70
2018-12-19T16:38:44.027Z,59.50
2018-12-19T16:41:14.206Z,62.50
2018-12-19T16:43:44.281Z,63.25
2018-12-19T16:46:14.711Z,63.23
2018-12-19T16:48:45.305Z,63.43
2018-12-19T16:51:15.695Z,63.00
2018-12-19T16:53:46.099Z,64.77
2018-12-19T16:56:16.317Z,68.07
2018-12-19T16:58:46.646Z,64.80
2018-12-19T17:01:17.302Z,62.47
2018-12-19T17:03:47.370Z,65.20
2018-12-19T17:08:55.475Z,68.87
2018-12-19T17:11:25.572Z,69.40
2018-12-19T17:13:56.301Z,68.20
2018-12-19T17:16:27.151Z,72.00
2018-12-19T17:18:58.134Z,69.93
2018-12-19T17:21:29.781Z,70.90
2018-12-19T17:24:00.555Z,71.90
2018-12-19T17:26:31.197Z,71.50
2018-12-19T17:29:01.326Z,77.03
2018-12-19T17:31:31.378Z,75.77
2018-12-19T17:36:38.045Z,74.60
2018-12-19T17:39:08.643Z,74.67
2018-12-19T17:41:41.249Z,77.17
2018-12-19T17:44:14.365Z,78.22
2018-12-19T17:46:45.166Z,74.07
2018-12-19T17:49:15.364Z,76.07
2018-12-19T17:51:46.545Z,74.97
2018-12-19T17:54:16.869Z,76.13
2018-12-19T17:56:47.579Z,78.13
2018-12-19T17:59:18.067Z,77.77
2018-12-19T18:01:48.807Z,75.93
2018-12-19T18:04:19.303Z,79.22
2018-12-19T18:06:49.924Z,81.30
2018-12-19T18:09:20.241Z,78.92
2018-12-19T18:11:54.464Z,84.07
2018-12-19T18:14:24.733Z,89.43
2018-12-19T18:16:55.533Z,91.63
2018-12-19T18:19:26.073Z,97.73
2018-12-19T18:22:00.643Z,98.37
2018-12-19T18:24:31.379Z,107.00
2018-12-19T18:27:01.867Z,103.57
2018-12-19T18:29:32.284Z,101.80
2018-12-19T18:32:03.486Z,100.17
2018-12-19T18:34:33.773Z,103.17
2018-12-19T18:37:04.586Z,98.07
2018-12-19T18:39:34.830Z,99.43
2018-12-19T18:42:06.656Z,96.57
2018-12-19T18:44:37.424Z,101.20
2018-12-19T18:47:09.066Z,98.30
2018-12-19T18:49:39.730Z,98.40
2018-12-19T18:52:09.711Z,95.20
2018-12-19T18:54:40.308Z,92.30
2018-12-19T18:57:10.471Z,94.15
2018-12-19T18:59:40.783Z,95.63
2018-12-19T19:04:48.350Z,89.63
2018-12-19T19:07:22.371Z,94.90
2018-12-19T19:09:53.500Z,87.20
2018-12-19T20:00:41.334Z,123.43
2018-12-19T20:03:13.075Z,121.47
2018-12-19T20:05:45.269Z,104.73
2018-12-19T20:08:16.760Z,110.37
2018-12-19T20:10:47.623Z,109.07
2018-12-19T20:13:18.730Z,103.33
2018-12-19T20:15:49.873Z,115.23
2018-12-19T20:18:24.024Z,110.92
2018-12-19T20:20:54.814Z,117.97
2018-12-19T20:23:26.273Z,110.60
2018-12-19T20:25:57.284Z,108.70
2018-12-19T20:28:29.063Z,104.37
2018-12-19T20:30:59.744Z,101.27
2018-12-19T20:33:34.255Z,97.50
2018-12-19T20:36:06.003Z,96.34
2018-12-19T20:38:36.622Z,101.27
2018-12-19T20:41:07.193Z,98.97
2018-12-19T20:43:40.080Z,94.63
2018-12-19T20:46:10.905Z,96.03
2018-12-19T20:48:42.203Z,97.57
2018-12-19T20:51:13.707Z,99.73
2018-12-19T20:53:48.282Z,98.57
2018-12-19T20:56:19.096Z,89.37
2018-12-19T20:58:50.130Z,93.47
2018-12-19T21:01:20.734Z,94.00
2018-12-19T21:03:51.626Z,90.57
2018-12-19T21:06:22.133Z,89.63
2018-12-19T21:08:52.968Z,91.50
2018-12-19T21:11:23.468Z,88.17
2018-12-19T21:13:54.432Z,96.82
2018-12-19T21:16:30.015Z,96.20
2018-12-19T21:19:00.366Z,96.97
2018-12-19T21:21:32.233Z,95.97
2018-12-19T21:24:02.944Z,92.63
2018-12-19T21:26:33.525Z,95.40
2018-12-19T21:29:04.835Z,90.40
2018-12-19T21:31:36.936Z,93.90
2018-12-19T21:34:07.426Z,91.93
2018-12-19T21:36:38.200Z,96.37
2018-12-19T21:39:10.445Z,91.87
2018-12-19T21:41:41.060Z,91.47
2018-12-19T21:44:18.213Z,95.15
2018-12-19T21:46:48.613Z,97.67
2018-12-19T21:49:19.235Z,94.97
2018-12-19T21:51:50.072Z,91.03
2018-12-19T21:54:20.633Z,93.85
2018-12-19T21:56:51.309Z,90.23
2018-12-19T21:59:21.708Z,93.93
2018-12-19T22:01:52.178Z,91.03
2018-12-19T22:04:22.629Z,87.53
2018-12-19T22:06:53.401Z,92.23
2018-12-19T22:09:25.070Z,90.42
2018-12-19T22:11:56.081Z,87.27
2018-12-19T22:14:26.386Z,86.17
2018-12-19T22:17:02.292Z,86.83
2018-12-19T22:19:33.130Z,92.20
2018-12-19T22:22:03.883Z,88.00
2018-12-19T22:24:34.490Z,93.73
2018-12-19T22:27:05.660Z,91.42
2018-12-19T22:29:36.745Z,95.00
2018-12-19T22:32:08.380Z,94.83
2018-12-19T22:34:39.120Z,95.60
2018-12-19T22:37:09.373Z,98.47
2018-12-19T22:39:39.923Z,95.57
2018-12-19T22:42:11.428Z,91.97
2018-12-19T22:44:42.150Z,96.00
2018-12-19T22:47:12.364Z,94.80
2018-12-19T22:49:42.877Z,96.97
2018-12-19T22:52:13.371Z,94.97
2018-12-19T22:54:43.899Z,93.90
2018-12-19T22:57:14.151Z,94.30
2018-12-19T22:59:44.911Z,93.83
2018-12-19T23:02:20.782Z,98.97
2018-12-19T23:04:51.169Z,90.57
2018-12-19T23:07:21.787Z,95.87
2018-12-19T23:09:52.022Z,99.00
2018-12-19T23:12:22.497Z,93.55
2018-12-19T23:14:52.843Z,98.73
2018-12-19T23:17:33.978Z,92.23
2018-12-19T23:20:11.929Z,101.75
2018-12-19T23:22:48.002Z,97.23
2018-12-19T23:25:25.280Z,98.07
2018-12-19T23:27:58.015Z,96.93
2018-12-19T23:33:05.003Z,100.13
2018-12-19T23:35:35.054Z,92.20
2018-12-19T23:38:05.834Z,93.10
2018-12-19T23:40:36.905Z,91.13
2018-12-19T23:43:08.020Z,84.80
2018-12-19T23:45:38.499Z,89.03
2018-12-19T23:48:09.555Z,89.70
2018-12-19T23:50:40.113Z,86.33
2018-12-19T23:53:10.197Z,84.77
2018-12-19T23:55:40.964Z,86.43
2018-12-19T23:58:12.102Z,85.12
